sensor_id;sensor_type;location;lat;lon;timestamp;pressure;altitude;pressure_sealevel;temperature;humidity
73341;BME280;61578;52.002;5.468;2023-07-13T00:00:11;101301.22;;;18.91;65.06
73341;BME280;61578;52.002;5.468;2023-07-13T00:00:45;101301.88;;;18.84;65.03
73341;BME280;61578;52.002;5.468;2023-07-13T00:01:17;101259.97;;;18.62;64.80
73341;BME280;61578;52.002;5.468;2023-07-13T00:01:49;101303.59;;;18.85;65.40
73341;BME280;61578;52.002;5.468;2023-07-13T00:02:20;101209.94;;;18.30;65.88
73341;BME280;61578;52.002;5.468;2023-07-13T00:02:51;101292.28;;;18.81;65.60
73341;BME280;61578;52.002;5.468;2023-07-13T00:03:24;101306.00;;;18.88;65.80
73341;BME280;61578;52.002;5.468;2023-07-13T00:03:59;101301.63;;;18.87;65.62
73341;BME280;61578;52.002;5.468;2023-07-13T00:04:32;101298.06;;;18.86;65.36
73341;BME280;61578;52.002;5.468;2023-07-13T00:05:03;101259.81;;;18.63;65.06
73341;BME280;61578;52.002;5.468;2023-07-13T00:05:34;101305.16;;;18.87;66.00
73341;BME280;61578;52.002;5.468;2023-07-13T00:06:08;101303.44;;;18.86;66.43
73341;BME280;61578;52.002;5.468;2023-07-13T00:06:39;101305.28;;;18.86;66.28
73341;BME280;61578;52.002;5.468;2023-07-13T00:07:13;101252.69;;;18.53;65.92
73341;BME280;61578;52.002;5.468;2023-07-13T00:07:44;101300.88;;;18.75;66.12
73341;BME280;61578;52.002;5.468;2023-07-13T00:08:16;101307.13;;;18.75;65.95
73341;BME280;61578;52.002;5.468;2023-07-13T00:08:47;101288.41;;;18.64;65.51
73341;BME280;61578;52.002;5.468;2023-07-13T00:09:20;101305.41;;;18.74;65.48
73341;BME280;61578;52.002;5.468;2023-07-13T00:09:52;101306.28;;;18.75;65.76
73341;BME280;61578;52.002;5.468;2023-07-13T00:10:23;101305.72;;;18.71;65.80
73341;BME280;61578;52.002;5.468;2023-07-13T00:10:54;101312.34;;;18.67;65.86
73341;BME280;61578;52.002;5.468;2023-07-13T00:11:25;101306.97;;;18.67;65.94
73341;BME280;61578;52.002;5.468;2023-07-13T00:11:57;101307.69;;;18.69;66.83
73341;BME280;61578;52.002;5.468;2023-07-13T00:12:34;101331.19;;;18.67;66.99
73341;BME280;61578;52.002;5.468;2023-07-13T00:13:09;101303.44;;;18.67;66.32
73341;BME280;61578;52.002;5.468;2023-07-13T00:13:41;101301.19;;;18.62;65.65
73341;BME280;61578;52.002;5.468;2023-07-13T00:14:14;101303.69;;;18.64;67.33
73341;BME280;61578;52.002;5.468;2023-07-13T00:14:46;101304.13;;;18.59;66.57
73341;BME280;61578;52.002;5.468;2023-07-13T00:15:21;101297.63;;;18.62;67.03
73341;BME280;61578;52.002;5.468;2023-07-13T00:15:58;101299.41;;;18.52;66.80
73341;BME280;61578;52.002;5.468;2023-07-13T00:16:29;101300.53;;;18.39;66.85
73341;BME280;61578;52.002;5.468;2023-07-13T00:17:00;101300.50;;;18.30;68.21
73341;BME280;61578;52.002;5.468;2023-07-13T00:17:31;101292.25;;;18.22;67.73
73341;BME280;61578;52.002;5.468;2023-07-13T00:18:02;101304.00;;;18.21;68.28
73341;BME280;61578;52.002;5.468;2023-07-13T00:18:33;101306.94;;;18.18;69.13
73341;BME280;61578;52.002;5.468;2023-07-13T00:19:05;101305.81;;;18.11;69.03
73341;BME280;61578;52.002;5.468;2023-07-13T00:19:36;101297.41;;;18.04;69.19
73341;BME280;61578;52.002;5.468;2023-07-13T00:20:08;101310.44;;;18.09;69.69
73341;BME280;61578;52.002;5.468;2023-07-13T00:20:39;101310.72;;;18.06;70.04
73341;BME280;61578;52.002;5.468;2023-07-13T00:21:11;101310.13;;;18.02;68.89
73341;BME280;61578;52.002;5.468;2023-07-13T00:21:43;101305.75;;;18.01;68.95
73341;BME280;61578;52.002;5.468;2023-07-13T00:22:14;101312.97;;;18.00;69.78
73341;BME280;61578;52.002;5.468;2023-07-13T00:22:44;101321.16;;;17.99;70.41
73341;BME280;61578;52.002;5.468;2023-07-13T00:23:15;101310.53;;;17.97;69.92
73341;BME280;61578;52.002;5.468;2023-07-13T00:23:48;101314.09;;;17.98;69.41
73341;BME280;61578;52.002;5.468;2023-07-13T00:24:19;101264.44;;;17.72;69.50
73341;BME280;61578;52.002;5.468;2023-07-13T00:24:54;101270.84;;;17.71;68.85
73341;BME280;61578;52.002;5.468;2023-07-13T00:25:28;101299.63;;;17.89;68.77
73341;BME280;61578;52.002;5.468;2023-07-13T00:26:00;101307.41;;;17.92;69.22
73341;BME280;61578;52.002;5.468;2023-07-13T00:26:32;101312.50;;;17.95;69.24
73341;BME280;61578;52.002;5.468;2023-07-13T00:27:04;101307.13;;;17.95;69.03
73341;BME280;61578;52.002;5.468;2023-07-13T00:27:35;101308.84;;;17.96;68.62
73341;BME280;61578;52.002;5.468;2023-07-13T00:28:06;101271.41;;;17.74;68.95
73341;BME280;61578;52.002;5.468;2023-07-13T00:28:37;101293.78;;;17.84;69.99
73341;BME280;61578;52.002;5.468;2023-07-13T00:29:10;101311.66;;;17.95;70.23
73341;BME280;61578;52.002;5.468;2023-07-13T00:29:41;101306.69;;;17.90;70.25
73341;BME280;61578;52.002;5.468;2023-07-13T00:30:11;101306.53;;;17.92;68.57
73341;BME280;61578;52.002;5.468;2023-07-13T00:30:42;101310.94;;;17.93;68.69
73341;BME280;61578;52.002;5.468;2023-07-13T00:31:15;101308.25;;;17.93;68.20
73341;BME280;61578;52.002;5.468;2023-07-13T00:31:45;101314.47;;;17.93;69.10
73341;BME280;61578;52.002;5.468;2023-07-13T00:32:16;101308.06;;;17.85;69.32
73341;BME280;61578;52.002;5.468;2023-07-13T00:32:47;101309.38;;;17.90;69.46
73341;BME280;61578;52.002;5.468;2023-07-13T00:33:24;101305.13;;;17.88;69.09
73341;BME280;61578;52.002;5.468;2023-07-13T00:33:58;101311.34;;;17.88;68.80
73341;BME280;61578;52.002;5.468;2023-07-13T00:34:29;101310.25;;;17.91;68.62
73341;BME280;61578;52.002;5.468;2023-07-13T00:35:01;101280.13;;;17.67;68.68
73341;BME280;61578;52.002;5.468;2023-07-13T00:35:34;101305.97;;;17.88;68.49
73341;BME280;61578;52.002;5.468;2023-07-13T00:36:06;101302.69;;;17.85;68.72
73341;BME280;61578;52.002;5.468;2023-07-13T00:36:38;101315.75;;;17.89;69.82
73341;BME280;61578;52.002;5.468;2023-07-13T00:37:09;101318.56;;;17.88;69.92
73341;BME280;61578;52.002;5.468;2023-07-13T00:37:42;101305.97;;;17.88;69.33
73341;BME280;61578;52.002;5.468;2023-07-13T00:38:13;101290.94;;;17.76;69.84
73341;BME280;61578;52.002;5.468;2023-07-13T00:38:43;101305.81;;;17.80;70.73
73341;BME280;61578;52.002;5.468;2023-07-13T00:39:15;101303.13;;;17.80;70.00
73341;BME280;61578;52.002;5.468;2023-07-13T00:39:45;101300.56;;;17.79;69.66
73341;BME280;61578;52.002;5.468;2023-07-13T00:40:18;101306.19;;;17.76;70.17
73341;BME280;61578;52.002;5.468;2023-07-13T00:40:49;101305.34;;;17.75;70.03
73341;BME280;61578;52.002;5.468;2023-07-13T00:41:19;101309.84;;;17.75;69.66
73341;BME280;61578;52.002;5.468;2023-07-13T00:41:51;101280.91;;;17.57;71.14
73341;BME280;61578;52.002;5.468;2023-07-13T00:42:22;101314.63;;;17.71;71.23
73341;BME280;61578;52.002;5.468;2023-07-13T00:42:58;101302.06;;;17.72;70.51
73341;BME280;61578;52.002;5.468;2023-07-13T00:43:30;101304.75;;;17.72;70.13
73341;BME280;61578;52.002;5.468;2023-07-13T00:44:02;101304.91;;;17.70;70.46
73341;BME280;61578;52.002;5.468;2023-07-13T00:44:34;101311.94;;;17.71;70.60
73341;BME280;61578;52.002;5.468;2023-07-13T00:46:25;101307.84;;;17.67;70.04
73341;BME280;61578;52.002;5.468;2023-07-13T00:47:03;101279.75;;;17.50;69.66
73341;BME280;61578;52.002;5.468;2023-07-13T00:47:34;101302.06;;;17.72;69.73
73341;BME280;61578;52.002;5.468;2023-07-13T00:48:05;101309.13;;;17.73;69.89
73341;BME280;61578;52.002;5.468;2023-07-13T00:48:38;101310.84;;;17.74;69.62
73341;BME280;61578;52.002;5.468;2023-07-13T00:49:17;101305.88;;;17.69;71.35
73341;BME280;61578;52.002;5.468;2023-07-13T00:49:50;101317.91;;;17.75;69.77
73341;BME280;61578;52.002;5.468;2023-07-13T00:50:22;101310.84;;;17.74;69.49
73341;BME280;61578;52.002;5.468;2023-07-13T00:50:58;101315.22;;;17.75;69.53
73341;BME280;61578;52.002;5.468;2023-07-13T00:51:54;101309.25;;;17.71;70.09
73341;BME280;61578;52.002;5.468;2023-07-13T00:52:27;101317.47;;;17.70;70.11
73341;BME280;61578;52.002;5.468;2023-07-13T00:52:59;101310.66;;;17.65;69.82
73341;BME280;61578;52.002;5.468;2023-07-13T00:53:32;101309.53;;;17.68;70.96
73341;BME280;61578;52.002;5.468;2023-07-13T00:54:08;101313.22;;;17.67;70.04
73341;BME280;61578;52.002;5.468;2023-07-13T00:54:46;101311.63;;;17.64;70.14
73341;BME280;61578;52.002;5.468;2023-07-13T00:55:18;101310.78;;;17.64;70.94
73341;BME280;61578;52.002;5.468;2023-07-13T00:55:56;101319.69;;;17.64;71.18
73341;BME280;61578;52.002;5.468;2023-07-13T00:56:28;101311.75;;;17.63;71.67
73341;BME280;61578;52.002;5.468;2023-07-13T00:57:03;101312.63;;;17.63;71.32
73341;BME280;61578;52.002;5.468;2023-07-13T00:57:36;101313.84;;;17.59;71.25
73341;BME280;61578;52.002;5.468;2023-07-13T00:58:07;101315.31;;;17.63;71.15
73341;BME280;61578;52.002;5.468;2023-07-13T00:58:39;101319.06;;;17.61;71.17
73341;BME280;61578;52.002;5.468;2023-07-13T00:59:12;101317.22;;;17.61;71.40
73341;BME280;61578;52.002;5.468;2023-07-13T00:59:51;101277.97;;;17.40;71.25
73341;BME280;61578;52.002;5.468;2023-07-13T01:00:25;101307.50;;;17.60;70.76
73341;BME280;61578;52.002;5.468;2023-07-13T01:00:57;101315.38;;;17.62;70.12
73341;BME280;61578;52.002;5.468;2023-07-13T01:01:29;101318.06;;;17.62;69.75
73341;BME280;61578;52.002;5.468;2023-07-13T01:02:00;101312.72;;;17.62;70.19
73341;BME280;61578;52.002;5.468;2023-07-13T01:02:31;101327.75;;;17.64;70.77
73341;BME280;61578;52.002;5.468;2023-07-13T01:03:03;101317.22;;;17.61;70.52
73341;BME280;61578;52.002;5.468;2023-07-13T01:03:35;101317.00;;;17.64;70.66
73341;BME280;61578;52.002;5.468;2023-07-13T01:04:07;101311.28;;;17.58;70.58
73341;BME280;61578;52.002;5.468;2023-07-13T01:04:39;101322.50;;;17.63;71.04
73341;BME280;61578;52.002;5.468;2023-07-13T01:05:18;101323.44;;;17.62;70.50
73341;BME280;61578;52.002;5.468;2023-07-13T01:05:51;101314.69;;;17.60;70.54
73341;BME280;61578;52.002;5.468;2023-07-13T01:06:24;101320.75;;;17.62;70.94
73341;BME280;61578;52.002;5.468;2023-07-13T01:06:56;101317.38;;;17.60;70.97
73341;BME280;61578;52.002;5.468;2023-07-13T01:07:28;101318.63;;;17.56;71.46
73341;BME280;61578;52.002;5.468;2023-07-13T01:08:01;101320.19;;;17.58;71.43
73341;BME280;61578;52.002;5.468;2023-07-13T01:08:34;101281.16;;;17.34;71.03
73341;BME280;61578;52.002;5.468;2023-07-13T01:09:08;101323.00;;;17.57;70.59
73341;BME280;61578;52.002;5.468;2023-07-13T01:09:40;101328.38;;;17.57;69.86
73341;BME280;61578;52.002;5.468;2023-07-13T01:10:12;101323.00;;;17.57;71.18
73341;BME280;61578;52.002;5.468;2023-07-13T01:10:55;101311.66;;;17.53;70.34
73341;BME280;61578;52.002;5.468;2023-07-13T01:11:28;101321.31;;;17.56;70.84
73341;BME280;61578;52.002;5.468;2023-07-13T01:12:00;101311.09;;;17.50;70.78
73341;BME280;61578;52.002;5.468;2023-07-13T01:12:31;101328.38;;;17.57;70.94
73341;BME280;61578;52.002;5.468;2023-07-13T01:13:02;101317.88;;;17.54;69.81
73341;BME280;61578;52.002;5.468;2023-07-13T01:13:34;101323.50;;;17.51;70.49
73341;BME280;61578;52.002;5.468;2023-07-13T01:14:04;101277.31;;;17.26;70.42
73341;BME280;61578;52.002;5.468;2023-07-13T01:14:35;101315.56;;;17.60;71.43
73341;BME280;61578;52.002;5.468;2023-07-13T01:15:36;101324.00;;;17.56;70.30
73341;BME280;61578;52.002;5.468;2023-07-13T01:16:25;101331.00;;;17.47;70.06
73341;BME280;61578;52.002;5.468;2023-07-13T01:16:58;101330.03;;;17.48;70.39
73341;BME280;61578;52.002;5.468;2023-07-13T01:17:31;101318.94;;;17.42;70.38
73341;BME280;61578;52.002;5.468;2023-07-13T01:18:07;101333.09;;;17.44;71.47
73341;BME280;61578;52.002;5.468;2023-07-13T01:18:41;101329.66;;;17.42;71.80
73341;BME280;61578;52.002;5.468;2023-07-13T01:19:38;101322.88;;;17.38;71.66
73341;BME280;61578;52.002;5.468;2023-07-13T01:20:11;101320.31;;;17.36;71.76
73341;BME280;61578;52.002;5.468;2023-07-13T01:21:33;101320.00;;;17.29;71.45
73341;BME280;61578;52.002;5.468;2023-07-13T01:22:13;101320.13;;;17.28;72.45
73341;BME280;61578;52.002;5.468;2023-07-13T01:22:47;101314.16;;;17.24;72.49
73341;BME280;61578;52.002;5.468;2023-07-13T01:23:21;101320.25;;;17.26;73.37
73341;BME280;61578;52.002;5.468;2023-07-13T01:23:52;101308.09;;;17.11;73.24
73341;BME280;61578;52.002;5.468;2023-07-13T01:24:26;101277.94;;;16.98;73.10
73341;BME280;61578;52.002;5.468;2023-07-13T01:24:56;101322.84;;;17.17;73.07
73341;BME280;61578;52.002;5.468;2023-07-13T01:25:27;101319.44;;;17.15;72.89
73341;BME280;61578;52.002;5.468;2023-07-13T01:25:59;101281.97;;;16.92;72.11
73341;BME280;61578;52.002;5.468;2023-07-13T01:26:30;101314.06;;;17.15;72.61
73341;BME280;61578;52.002;5.468;2023-07-13T01:27:02;101316.88;;;17.13;72.85
73341;BME280;61578;52.002;5.468;2023-07-13T01:27:36;101322.97;;;17.15;72.70
73341;BME280;61578;52.002;5.468;2023-07-13T01:28:08;101325.78;;;17.14;72.07
73341;BME280;61578;52.002;5.468;2023-07-13T01:28:39;101323.09;;;17.14;71.95
73341;BME280;61578;52.002;5.468;2023-07-13T01:29:10;101324.94;;;17.13;72.07
73341;BME280;61578;52.002;5.468;2023-07-13T01:29:44;101326.88;;;17.11;71.89
73341;BME280;61578;52.002;5.468;2023-07-13T01:30:16;101320.53;;;17.12;72.51
73341;BME280;61578;52.002;5.468;2023-07-13T01:30:48;101323.50;;;17.09;72.47
73341;BME280;61578;52.002;5.468;2023-07-13T01:31:22;101320.09;;;17.07;72.83
73341;BME280;61578;52.002;5.468;2023-07-13T01:31:52;101322.66;;;17.09;73.23
73341;BME280;61578;52.002;5.468;2023-07-13T01:32:24;101289.44;;;16.89;73.66
73341;BME280;61578;52.002;5.468;2023-07-13T01:32:55;101324.59;;;17.07;73.42
73341;BME280;61578;52.002;5.468;2023-07-13T01:33:26;101325.81;;;17.03;73.67
73341;BME280;61578;52.002;5.468;2023-07-13T01:33:57;101326.31;;;17.08;73.53
73341;BME280;61578;52.002;5.468;2023-07-13T01:34:28;101325.72;;;17.04;73.34
73341;BME280;61578;52.002;5.468;2023-07-13T01:34:58;101333.75;;;17.04;73.00
73341;BME280;61578;52.002;5.468;2023-07-13T01:35:29;101332.06;;;17.03;73.04
73341;BME280;61578;52.002;5.468;2023-07-13T01:36:00;101333.75;;;17.04;72.92
73341;BME280;61578;52.002;5.468;2023-07-13T01:36:32;101338.28;;;17.04;73.36
73341;BME280;61578;52.002;5.468;2023-07-13T01:37:05;101330.94;;;17.06;73.59
73341;BME280;61578;52.002;5.468;2023-07-13T01:37:36;101299.44;;;16.87;74.30
73341;BME280;61578;52.002;5.468;2023-07-13T01:38:06;101329.50;;;17.02;73.92
73341;BME280;61578;52.002;5.468;2023-07-13T01:38:38;101339.84;;;17.06;73.87
73341;BME280;61578;52.002;5.468;2023-07-13T01:39:09;101332.78;;;17.05;74.16
73341;BME280;61578;52.002;5.468;2023-07-13T01:39:40;101334.00;;;17.01;73.57
73341;BME280;61578;52.002;5.468;2023-07-13T01:40:12;101295.53;;;16.80;73.38
73341;BME280;61578;52.002;5.468;2023-07-13T01:40:43;101329.50;;;17.02;73.67
73341;BME280;61578;52.002;5.468;2023-07-13T01:41:14;101323.16;;;17.03;73.91
73341;BME280;61578;52.002;5.468;2023-07-13T01:41:45;101322.56;;;16.99;72.85
73341;BME280;61578;52.002;5.468;2023-07-13T01:42:16;101326.81;;;17.02;73.32
73341;BME280;61578;52.002;5.468;2023-07-13T01:42:47;101335.84;;;17.01;73.62
73341;BME280;61578;52.002;5.468;2023-07-13T01:43:19;101317.69;;;16.93;73.37
73341;BME280;61578;52.002;5.468;2023-07-13T01:43:50;101328.63;;;17.01;73.95
73341;BME280;61578;52.002;5.468;2023-07-13T01:44:21;101331.47;;;17.00;73.34
73341;BME280;61578;52.002;5.468;2023-07-13T01:44:51;101283.63;;;16.73;73.49
73341;BME280;61578;52.002;5.468;2023-07-13T01:45:22;101318.66;;;16.92;72.99
73341;BME280;61578;52.002;5.468;2023-07-13T01:45:53;101329.41;;;16.92;74.09
73341;BME280;61578;52.002;5.468;2023-07-13T01:46:24;101333.78;;;16.93;73.72
73341;BME280;61578;52.002;5.468;2023-07-13T01:46:55;101331.84;;;16.95;74.37
73341;BME280;61578;52.002;5.468;2023-07-13T01:47:26;101329.16;;;16.95;74.25
73341;BME280;61578;52.002;5.468;2023-07-13T01:47:58;101329.88;;;16.97;74.37
73341;BME280;61578;52.002;5.468;2023-07-13T01:48:29;101291.56;;;16.74;74.52
73341;BME280;61578;52.002;5.468;2023-07-13T01:49:00;101320.50;;;16.91;73.47
73341;BME280;61578;52.002;5.468;2023-07-13T01:49:31;101322.94;;;16.95;74.02
73341;BME280;61578;52.002;5.468;2023-07-13T01:50:02;101324.03;;;16.92;73.90
73341;BME280;61578;52.002;5.468;2023-07-13T01:50:34;101327.56;;;16.92;73.45
73341;BME280;61578;52.002;5.468;2023-07-13T01:51:05;101328.44;;;16.93;74.39
73341;BME280;61578;52.002;5.468;2023-07-13T01:51:36;101331.09;;;16.93;74.25
73341;BME280;61578;52.002;5.468;2023-07-13T01:52:07;101297.66;;;16.76;73.96
73341;BME280;61578;52.002;5.468;2023-07-13T01:52:38;101318.75;;;17.02;73.14
73341;BME280;61578;52.002;5.468;2023-07-13T01:53:09;101297.69;;;16.97;73.70
73341;BME280;61578;52.002;5.468;2023-07-13T01:53:40;101322.97;;;17.15;72.55
73341;BME280;61578;52.002;5.468;2023-07-13T01:54:11;101320.03;;;17.18;73.09
73341;BME280;61578;52.002;5.468;2023-07-13T01:54:41;101321.28;;;17.14;72.77
73341;BME280;61578;52.002;5.468;2023-07-13T01:55:12;101317.50;;;17.17;73.19
73341;BME280;61578;52.002;5.468;2023-07-13T01:55:47;101329.06;;;17.17;73.59
73341;BME280;61578;52.002;5.468;2023-07-13T01:56:18;101321.88;;;17.18;72.63
73341;BME280;61578;52.002;5.468;2023-07-13T01:56:49;101331.88;;;17.16;72.48
73341;BME280;61578;52.002;5.468;2023-07-13T01:57:20;101308.09;;;17.11;72.78
73341;BME280;61578;52.002;5.468;2023-07-13T01:57:51;101281.97;;;16.92;73.05
73341;BME280;61578;52.002;5.468;2023-07-13T01:58:21;101321.28;;;17.14;72.37
73341;BME280;61578;52.002;5.468;2023-07-13T01:58:52;101328.09;;;17.18;72.26
73341;BME280;61578;52.002;5.468;2023-07-13T01:59:23;101328.09;;;17.18;72.51
73341;BME280;61578;52.002;5.468;2023-07-13T01:59:54;101326.13;;;17.20;72.98
73341;BME280;61578;52.002;5.468;2023-07-13T02:00:24;101322.59;;;17.20;73.49
73341;BME280;61578;52.002;5.468;2023-07-13T02:00:55;101299.72;;;17.05;73.49
73341;BME280;61578;52.002;5.468;2023-07-13T02:01:26;101332.22;;;17.22;73.07
73341;BME280;61578;52.002;5.468;2023-07-13T02:01:57;101326.13;;;17.20;72.62
73341;BME280;61578;52.002;5.468;2023-07-13T02:02:31;101286.25;;;16.95;72.69
73341;BME280;61578;52.002;5.468;2023-07-13T02:03:02;101294.03;;;16.98;73.37
73341;BME280;61578;52.002;5.468;2023-07-13T02:03:35;101295.38;;;16.92;73.01
73341;BME280;61578;52.002;5.468;2023-07-13T02:04:06;101332.00;;;17.14;73.50
73341;BME280;61578;52.002;5.468;2023-07-13T02:04:37;101332.00;;;17.14;72.99
73341;BME280;61578;52.002;5.468;2023-07-13T02:05:08;101346.81;;;17.09;73.41
73341;BME280;61578;52.002;5.468;2023-07-13T02:05:39;101331.56;;;17.09;73.06
73341;BME280;61578;52.002;5.468;2023-07-13T02:06:10;101295.91;;;16.86;73.35
73341;BME280;61578;52.002;5.468;2023-07-13T02:06:41;101342.28;;;17.09;72.89
73341;BME280;61578;52.002;5.468;2023-07-13T02:07:11;101332.91;;;17.04;73.49
73341;BME280;61578;52.002;5.468;2023-07-13T02:07:43;101300.53;;;16.84;72.83
73341;BME280;61578;52.002;5.468;2023-07-13T02:08:14;101344.63;;;17.03;73.08
73341;BME280;61578;52.002;5.468;2023-07-13T02:08:45;101338.50;;;17.01;73.18
73341;BME280;61578;52.002;5.468;2023-07-13T02:09:15;101323.78;;;16.95;72.85
73341;BME280;61578;52.002;5.468;2023-07-13T02:09:46;101337.81;;;16.99;73.15
73341;BME280;61578;52.002;5.468;2023-07-13T02:10:17;101334.97;;;17.00;73.58
73341;BME280;61578;52.002;5.468;2023-07-13T02:10:48;101292.00;;;16.79;73.85
73341;BME280;61578;52.002;5.468;2023-07-13T02:11:19;101338.38;;;17.02;73.81
73341;BME280;61578;52.002;5.468;2023-07-13T02:11:50;101333.03;;;17.02;73.94
73341;BME280;61578;52.002;5.468;2023-07-13T02:12:23;101341.81;;;17.04;73.47
73341;BME280;61578;52.002;5.468;2023-07-13T02:12:54;101335.84;;;17.01;73.35
73341;BME280;61578;52.002;5.468;2023-07-13T02:13:25;101338.38;;;17.02;72.92
73341;BME280;61578;52.002;5.468;2023-07-13T02:13:56;101339.25;;;17.03;73.49
73341;BME280;61578;52.002;5.468;2023-07-13T02:14:26;101344.63;;;17.03;73.33
73341;BME280;61578;52.002;5.468;2023-07-13T02:15:00;101308.72;;;16.83;72.71
73341;BME280;61578;52.002;5.468;2023-07-13T02:15:31;101342.78;;;17.03;72.75
73341;BME280;61578;52.002;5.468;2023-07-13T02:16:02;101340.94;;;17.04;72.76
73341;BME280;61578;52.002;5.468;2023-07-13T02:16:33;101345.34;;;17.05;72.74
73341;BME280;61578;52.002;5.468;2023-07-13T02:17:05;101339.13;;;17.04;72.92
73341;BME280;61578;52.002;5.468;2023-07-13T02:17:36;101343.63;;;17.04;73.13
73341;BME280;61578;52.002;5.468;2023-07-13T02:18:07;101339.38;;;17.01;72.98
73341;BME280;61578;52.002;5.468;2023-07-13T02:18:38;101292.16;;;16.78;72.68
73341;BME280;61578;52.002;5.468;2023-07-13T02:19:09;101338.38;;;17.02;72.90
73341;BME280;61578;52.002;5.468;2023-07-13T02:19:40;101339.97;;;17.05;72.78
73341;BME280;61578;52.002;5.468;2023-07-13T02:20:11;101337.28;;;17.05;73.52
73341;BME280;61578;52.002;5.468;2023-07-13T02:20:47;101340.94;;;17.04;73.92
73341;BME280;61578;52.002;5.468;2023-07-13T02:21:18;101326.94;;;17.00;73.81
73341;BME280;61578;52.002;5.468;2023-07-13T02:21:50;101332.78;;;17.05;73.48
73341;BME280;61578;52.002;5.468;2023-07-13T02:22:21;101337.03;;;17.08;73.42
73341;BME280;61578;52.002;5.468;2023-07-13T02:22:55;101336.19;;;17.07;73.36
73341;BME280;61578;52.002;5.468;2023-07-13T02:23:26;101342.28;;;17.09;73.25
73341;BME280;61578;52.002;5.468;2023-07-13T02:23:57;101299.44;;;16.87;73.05
73341;BME280;61578;52.002;5.468;2023-07-13T02:24:30;101340.72;;;17.07;73.53
73341;BME280;61578;52.002;5.468;2023-07-13T02:25:01;101337.03;;;17.08;73.52
73341;BME280;61578;52.002;5.468;2023-07-13T02:25:33;101343.00;;;17.11;72.94
73341;BME280;61578;52.002;5.468;2023-07-13T02:26:04;101340.72;;;17.07;73.13
73341;BME280;61578;52.002;5.468;2023-07-13T02:26:35;101332.25;;;17.11;73.17
73341;BME280;61578;52.002;5.468;2023-07-13T02:27:06;101335.59;;;17.04;73.21
73341;BME280;61578;52.002;5.468;2023-07-13T02:27:37;101331.56;;;17.09;73.74
73341;BME280;61578;52.002;5.468;2023-07-13T02:28:08;101341.56;;;17.07;73.10
73341;BME280;61578;52.002;5.468;2023-07-13T02:28:39;101336.06;;;17.09;73.21
73341;BME280;61578;52.002;5.468;2023-07-13T02:29:10;101343.25;;;17.08;73.45
73341;BME280;61578;52.002;5.468;2023-07-13T02:29:41;101335.47;;;17.05;73.57
73341;BME280;61578;52.002;5.468;2023-07-13T02:30:12;101340.94;;;17.04;73.44
73341;BME280;61578;52.002;5.468;2023-07-13T02:30:44;101347.03;;;17.06;73.55
73341;BME280;61578;52.002;5.468;2023-07-13T02:31:15;101319.66;;;16.91;73.23
73341;BME280;61578;52.002;5.468;2023-07-13T02:31:46;101335.34;;;17.07;73.43
73341;BME280;61578;52.002;5.468;2023-07-13T02:32:17;101340.47;;;17.10;73.22
73341;BME280;61578;52.002;5.468;2023-07-13T02:32:51;101341.28;;;17.10;73.13
73341;BME280;61578;52.002;5.468;2023-07-13T02:33:22;101338.59;;;17.10;73.36
73341;BME280;61578;52.002;5.468;2023-07-13T02:33:52;101350.34;;;17.09;73.59
73341;BME280;61578;52.002;5.468;2023-07-13T02:34:23;101342.28;;;17.09;73.59
73341;BME280;61578;52.002;5.468;2023-07-13T02:34:54;101341.56;;;17.07;73.91
73341;BME280;61578;52.002;5.468;2023-07-13T02:35:25;101293.34;;;16.85;73.55
73341;BME280;61578;52.002;5.468;2023-07-13T02:35:59;101346.41;;;17.13;73.60
73341;BME280;61578;52.002;5.468;2023-07-13T02:36:31;101338.75;;;17.09;73.36
73341;BME280;61578;52.002;5.468;2023-07-13T02:37:02;101339.72;;;17.08;74.08
73341;BME280;61578;52.002;5.468;2023-07-13T02:37:36;101355.56;;;17.11;73.90
73341;BME280;61578;52.002;5.468;2023-07-13T02:38:07;101285.59;;;16.71;73.74
73341;BME280;61578;52.002;5.468;2023-07-13T02:38:39;101350.34;;;17.09;73.85
73341;BME280;61578;52.002;5.468;2023-07-13T02:39:11;101344.97;;;17.09;73.47
73341;BME280;61578;52.002;5.468;2023-07-13T02:39:43;101328.91;;;16.98;74.18
73341;BME280;61578;52.002;5.468;2023-07-13T02:40:14;101309.44;;;16.85;73.93
73341;BME280;61578;52.002;5.468;2023-07-13T02:40:46;101303.34;;;16.83;74.02
73341;BME280;61578;52.002;5.468;2023-07-13T02:41:16;101342.91;;;17.02;73.80
73341;BME280;61578;52.002;5.468;2023-07-13T02:41:47;101330.88;;;16.96;73.88
73341;BME280;61578;52.002;5.468;2023-07-13T02:42:18;101340.09;;;17.03;74.59
73341;BME280;61578;52.002;5.468;2023-07-13T02:42:49;101339.38;;;17.01;74.22
73341;BME280;61578;52.002;5.468;2023-07-13T02:43:19;101335.84;;;17.01;73.71
73341;BME280;61578;52.002;5.468;2023-07-13T02:43:50;101292.41;;;16.75;74.10
73341;BME280;61578;52.002;5.468;2023-07-13T02:44:21;101336.56;;;17.03;74.06
73341;BME280;61578;52.002;5.468;2023-07-13T02:44:52;101343.75;;;17.02;74.30
73341;BME280;61578;52.002;5.468;2023-07-13T02:45:23;101329.59;;;17.00;73.96
73341;BME280;61578;52.002;5.468;2023-07-13T02:45:54;101339.13;;;17.04;74.78
73341;BME280;61578;52.002;5.468;2023-07-13T02:46:25;101339.25;;;17.03;74.82
73341;BME280;61578;52.002;5.468;2023-07-13T02:46:56;101341.81;;;17.04;75.16
73341;BME280;61578;52.002;5.468;2023-07-13T02:47:27;101328.19;;;16.96;74.43
73341;BME280;61578;52.002;5.468;2023-07-13T02:47:58;101338.16;;;17.05;74.75
73341;BME280;61578;52.002;5.468;2023-07-13T02:48:28;101332.91;;;17.04;74.33
73341;BME280;61578;52.002;5.468;2023-07-13T02:48:59;101305.06;;;16.84;74.76
73341;BME280;61578;52.002;5.468;2023-07-13T02:49:30;101330.63;;;16.99;74.81
73341;BME280;61578;52.002;5.468;2023-07-13T02:50:04;101337.66;;;17.00;74.85
73341;BME280;61578;52.002;5.468;2023-07-13T02:50:37;101336.69;;;17.01;74.79